createdAt,value
2023-03-29T00:02:33.488Z,1.13
2023-03-29T00:05:02.089Z,1.50
2023-03-29T00:07:30.088Z,1.52
2023-03-29T00:09:56.705Z,1.42
2023-03-29T00:12:23.130Z,1.92
2023-03-29T00:14:49.560Z,1.40
2023-03-29T00:17:16.404Z,1.50
2023-03-29T00:19:44.524Z,1.83
2023-03-29T00:22:11.492Z,1.60
2023-03-29T00:24:37.976Z,1.75
2023-03-29T00:27:04.789Z,1.58
2023-03-29T00:29:31.346Z,1.90
2023-03-29T00:31:58.117Z,1.80
2023-03-29T00:34:26.490Z,1.65
2023-03-29T00:36:53.137Z,2.50
2023-03-29T00:39:20.536Z,1.80
2023-03-29T00:41:48.705Z,1.80
2023-03-29T00:44:52.714Z,1.85
2023-03-29T00:47:26.475Z,1.80
2023-03-29T00:49:53.916Z,1.80
2023-03-29T00:52:21.772Z,1.85
2023-03-29T00:54:52.981Z,1.85
2023-03-29T00:57:20.897Z,2.05
2023-03-29T00:59:49.627Z,1.77
2023-03-29T01:02:22.088Z,1.80
2023-03-29T01:07:30.739Z,1.90
2023-03-29T01:10:29.474Z,2.00
2023-03-29T01:13:06.367Z,2.22
2023-03-29T01:15:33.408Z,1.70
2023-03-29T01:18:01.828Z,1.52
2023-03-29T01:20:46.032Z,1.88
2023-03-29T01:23:22.256Z,1.70
2023-03-29T01:26:10.024Z,1.95
2023-03-29T01:28:45.505Z,1.48
2023-03-29T01:31:19.684Z,1.80
2023-03-29T01:34:00.975Z,1.50
2023-03-29T01:36:35.004Z,1.67
2023-03-29T01:39:06.950Z,1.70
2023-03-29T01:41:52.243Z,1.67
2023-03-29T01:44:23.970Z,2.20
2023-03-29T01:49:32.315Z,1.50
2023-03-29T01:52:05.363Z,1.70
2023-03-29T01:54:38.133Z,2.08
2023-03-29T01:57:06.887Z,1.92
2023-03-29T01:59:36.299Z,2.20
2023-03-29T02:02:08.128Z,2.05
2023-03-29T02:04:40.364Z,1.98
2023-03-29T02:07:09.012Z,2.10
2023-03-29T02:09:37.782Z,2.08
2023-03-29T02:12:07.081Z,1.95
2023-03-29T02:14:33.586Z,2.03
2023-03-29T02:17:18.213Z,1.90
2023-03-29T02:19:51.550Z,2.53
2023-03-29T02:22:24.326Z,2.25
2023-03-29T02:24:54.799Z,2.20
2023-03-29T02:27:21.766Z,1.92
2023-03-29T02:29:48.325Z,1.83
2023-03-29T02:32:42.260Z,2.30
2023-03-29T02:35:14.506Z,2.05
2023-03-29T02:37:44.442Z,2.17
2023-03-29T02:40:13.089Z,2.20
2023-03-29T02:42:42.488Z,2.03
2023-03-29T02:45:12.761Z,1.83
2023-03-29T02:47:44.336Z,1.85
2023-03-29T02:50:11.943Z,1.83
2023-03-29T02:52:43.008Z,2.03
2023-03-29T02:55:15.770Z,2.00
2023-03-29T02:57:43.812Z,2.28
2023-03-29T03:00:11.803Z,1.80
2023-03-29T03:02:38.324Z,1.70
2023-03-29T03:05:06.656Z,1.90
2023-03-29T03:07:33.752Z,1.83
2023-03-29T03:10:00.365Z,1.83
2023-03-29T03:12:27.098Z,2.05
2023-03-29T03:14:53.594Z,1.90
2023-03-29T03:17:20.186Z,2.00
2023-03-29T03:19:47.454Z,2.15
2023-03-29T03:22:14.848Z,2.20
2023-03-29T03:24:42.652Z,2.05
2023-03-29T03:27:10.790Z,1.88
2023-03-29T03:29:38.553Z,1.80
2023-03-29T03:32:43.579Z,2.50
2023-03-29T03:35:49.213Z,2.50
2023-03-29T03:40:53.656Z,2.13
2023-03-29T03:43:20.110Z,2.88
2023-03-29T03:45:47.958Z,2.22
2023-03-29T03:48:17.512Z,2.47
2023-03-29T03:50:55.215Z,2.55
2023-03-29T03:53:23.522Z,2.45
2023-03-29T03:56:20.451Z,2.00
2023-03-29T03:59:07.155Z,2.92
2023-03-29T04:01:50.641Z,2.17
2023-03-29T04:04:20.594Z,1.88
2023-03-29T04:07:02.652Z,2.08
2023-03-29T04:09:48.811Z,2.40
2023-03-29T04:12:33.899Z,2.13
2023-03-29T04:15:01.198Z,1.92
2023-03-29T04:17:28.978Z,2.10
2023-03-29T04:19:58.259Z,2.10
2023-03-29T04:22:27.220Z,2.30
2023-03-29T04:24:53.873Z,2.25
2023-03-29T04:27:38.927Z,1.88
2023-03-29T04:30:13.415Z,2.17
2023-03-29T04:33:06.094Z,2.50
2023-03-29T04:35:34.254Z,2.08
2023-03-29T04:38:00.987Z,1.90
2023-03-29T04:40:28.985Z,1.88
2023-03-29T04:43:18.363Z,1.92
2023-03-29T04:45:55.154Z,1.70
2023-03-29T04:48:47.213Z,2.08
2023-03-29T04:51:14.111Z,2.20
2023-03-29T04:53:41.076Z,2.10
2023-03-29T04:56:08.095Z,1.88
2023-03-29T04:59:00.545Z,1.80
2023-03-29T05:01:27.043Z,1.98
2023-03-29T05:03:57.468Z,1.80
2023-03-29T05:06:29.272Z,2.25
2023-03-29T05:08:56.118Z,2.95
2023-03-29T05:11:26.954Z,2.22
2023-03-29T05:13:55.795Z,1.73
2023-03-29T05:16:24.614Z,2.05
2023-03-29T05:18:55.281Z,2.08
2023-03-29T05:21:22.310Z,1.67
2023-03-29T05:23:49.461Z,2.20
2023-03-29T05:26:16.156Z,2.03
2023-03-29T05:28:50.902Z,1.90
2023-03-29T05:31:17.558Z,2.13
2023-03-29T05:33:48.319Z,2.50
2023-03-29T05:36:16.975Z,2.20
2023-03-29T05:38:49.828Z,2.50
2023-03-29T05:41:20.654Z,2.13
2023-03-29T05:43:47.056Z,1.95
2023-03-29T05:46:13.717Z,1.65
2023-03-29T05:48:47.471Z,1.88
2023-03-29T05:51:15.017Z,1.92
2023-03-29T05:53:41.643Z,1.40
2023-03-29T05:56:08.780Z,1.70
2023-03-29T05:58:36.249Z,1.63
2023-03-29T06:01:05.179Z,2.20
2023-03-29T06:03:49.506Z,1.23
2023-03-29T06:06:18.414Z,1.73
2023-03-29T06:08:45.250Z,1.80
2023-03-29T06:11:24.149Z,1.98
2023-03-29T06:14:16.627Z,1.60
2023-03-29T06:16:50.082Z,1.88
2023-03-29T06:19:17.363Z,1.95
2023-03-29T06:21:43.916Z,1.67
2023-03-29T06:24:13.996Z,1.88
2023-03-29T06:26:46.406Z,1.90
2023-03-29T06:29:12.900Z,1.50
2023-03-29T06:31:40.934Z,2.05
2023-03-29T06:34:09.591Z,1.80
2023-03-29T06:36:58.696Z,1.40
2023-03-29T06:39:26.895Z,1.55
2023-03-29T06:42:20.162Z,1.60
2023-03-29T06:45:08.683Z,1.58
2023-03-29T06:47:36.698Z,2.05
2023-03-29T06:50:03.496Z,1.67
2023-03-29T06:52:56.244Z,2.00
2023-03-29T06:55:24.481Z,1.90
2023-03-29T06:57:52.647Z,2.35
2023-03-29T07:00:27.665Z,1.83
2023-03-29T07:03:19.962Z,1.70
2023-03-29T07:05:51.885Z,1.88
2023-03-29T07:08:21.393Z,1.60
2023-03-29T07:10:59.304Z,1.55
2023-03-29T07:13:46.153Z,1.58
2023-03-29T07:16:17.464Z,1.95
2023-03-29T07:18:49.921Z,1.83
2023-03-29T07:21:37.746Z,2.08
2023-03-29T07:24:06.590Z,1.95
2023-03-29T07:26:34.611Z,1.70
2023-03-29T07:29:01.249Z,1.70
2023-03-29T07:31:29.520Z,1.70
2023-03-29T07:34:10.863Z,1.60
2023-03-29T07:36:38.862Z,1.83
2023-03-29T07:39:06.859Z,1.70
2023-03-29T07:41:36.039Z,10.57
2023-03-29T07:44:11.734Z,33.50
2023-03-29T07:46:38.683Z,37.63
2023-03-29T07:49:06.777Z,27.55
2023-03-29T07:51:33.252Z,14.93
2023-03-29T07:54:07.747Z,7.00
2023-03-29T07:56:40.309Z,5.50
2023-03-29T07:59:26.007Z,3.17
2023-03-29T08:02:02.916Z,1.90
2023-03-29T08:04:37.393Z,2.10
2023-03-29T08:07:19.867Z,1.48
2023-03-29T08:10:05.611Z,1.55
2023-03-29T08:12:50.499Z,1.33
2023-03-29T08:15:19.714Z,1.58
2023-03-29T08:17:46.343Z,1.60
2023-03-29T08:20:16.232Z,2.38
2023-03-29T08:22:45.773Z,1.70
2023-03-29T08:25:32.883Z,1.60
2023-03-29T08:27:59.402Z,1.40
2023-03-29T08:30:37.390Z,1.30
2023-03-29T08:33:05.209Z,1.40
2023-03-29T08:35:32.101Z,1.20
2023-03-29T08:38:19.900Z,1.63
2023-03-29T08:40:48.708Z,1.55
2023-03-29T08:43:39.566Z,1.50
2023-03-29T08:46:30.893Z,1.40
2023-03-29T08:49:10.689Z,1.10
2023-03-29T08:51:44.192Z,1.60
2023-03-29T08:54:24.384Z,1.30
2023-03-29T08:57:23.512Z,1.40
2023-03-29T08:59:58.361Z,1.08
2023-03-29T09:02:27.724Z,1.63
2023-03-29T09:05:15.114Z,1.15
2023-03-29T09:07:44.952Z,1.38
2023-03-29T09:10:16.833Z,1.10
2023-03-29T09:13:06.336Z,1.67
2023-03-29T09:16:01.353Z,1.42
2023-03-29T09:18:48.358Z,1.30
2023-03-29T09:21:19.487Z,1.52
2023-03-29T09:27:05.125Z,1.30
2023-03-29T09:29:55.489Z,2.00
2023-03-29T09:32:42.908Z,1.65
2023-03-29T09:35:35.680Z,1.55
2023-03-29T09:38:03.876Z,1.55
2023-03-29T09:40:39.829Z,1.40
2023-03-29T09:43:19.129Z,1.20
2023-03-29T09:45:53.053Z,1.52
2023-03-29T09:48:20.704Z,1.70
2023-03-29T09:50:52.959Z,1.27
2023-03-29T09:53:21.528Z,1.30
2023-03-29T09:56:08.379Z,1.33
2023-03-29T09:58:46.740Z,1.20
2023-03-29T10:01:17.522Z,1.50
2023-03-29T10:03:51.405Z,1.40
2023-03-29T10:06:20.242Z,1.33
2023-03-29T10:08:58.714Z,1.10
2023-03-29T10:11:36.936Z,1.20
2023-03-29T10:14:07.235Z,1.75
2023-03-29T10:16:38.001Z,1.10
2023-03-29T10:19:19.283Z,1.50
2023-03-29T10:21:52.770Z,1.30
2023-03-29T10:24:24.507Z,1.70
2023-03-29T10:26:57.939Z,1.10
2023-03-29T10:29:26.067Z,1.58
2023-03-29T10:31:53.270Z,1.40
2023-03-29T10:34:25.140Z,1.10
2023-03-29T10:36:58.825Z,1.00
2023-03-29T10:39:29.183Z,1.00
2023-03-29T11:07:27.831Z,1.15
2023-03-29T13:08:38.118Z,0.90
2023-03-29T13:11:06.477Z,0.82
2023-03-29T13:13:36.654Z,1.20
2023-03-29T13:16:15.690Z,0.90
2023-03-29T13:19:07.530Z,0.80
2023-03-29T13:24:35.671Z,0.95
2023-03-29T13:27:04.786Z,0.90
2023-03-29T13:29:48.053Z,0.80
2023-03-29T13:32:46.378Z,0.90
2023-03-29T13:35:20.260Z,0.80
2023-03-29T13:38:21.480Z,0.70
2023-03-29T13:40:53.974Z,0.80
2023-03-29T13:43:44.534Z,0.77
2023-03-29T13:46:21.197Z,0.98
2023-03-29T13:48:57.907Z,1.25
2023-03-29T13:51:32.927Z,1.13
2023-03-29T13:59:50.418Z,1.20
2023-03-29T14:02:25.397Z,1.05
2023-03-29T14:04:53.370Z,0.90
2023-03-29T14:07:26.092Z,0.82
2023-03-29T14:09:54.994Z,1.38
2023-03-29T14:12:22.525Z,1.15
2023-03-29T14:14:58.817Z,1.05
2023-03-29T14:17:26.892Z,1.15
2023-03-29T14:19:57.572Z,1.17
2023-03-29T14:22:24.223Z,0.90
2023-03-29T14:24:54.731Z,0.93
2023-03-29T14:27:21.961Z,0.80
2023-03-29T14:29:51.203Z,1.05
2023-03-29T14:32:20.460Z,1.17
2023-03-29T14:34:50.769Z,1.23
2023-03-29T14:37:22.701Z,1.00
2023-03-29T14:39:50.088Z,1.02
2023-03-29T14:42:24.084Z,1.10
2023-03-29T14:44:51.050Z,1.00
2023-03-29T14:47:29.526Z,1.00
2023-03-29T14:50:00.531Z,1.17
2023-03-29T14:52:30.267Z,1.38
2023-03-29T14:55:00.041Z,1.23
2023-03-29T14:57:31.959Z,0.90
2023-03-29T15:00:24.552Z,1.05
2023-03-29T15:02:59.188Z,1.10
2023-03-29T15:05:30.247Z,1.10
2023-03-29T15:07:56.785Z,0.90
2023-03-29T15:10:23.621Z,1.15
2023-03-29T15:12:51.074Z,1.40
2023-03-29T15:15:17.949Z,2.50
2023-03-29T15:17:52.115Z,1.67
2023-03-29T15:20:21.249Z,1.40
2023-03-29T15:22:58.774Z,1.40
2023-03-29T15:25:34.631Z,2.90
2023-03-29T15:28:01.785Z,1.88
2023-03-29T15:30:35.811Z,1.30
2023-03-29T15:33:26.055Z,0.93
2023-03-29T15:35:53.725Z,1.17
2023-03-29T15:38:25.429Z,1.15
2023-03-29T15:41:00.802Z,1.30
2023-03-29T15:43:27.509Z,1.30
2023-03-29T15:45:54.025Z,1.10
2023-03-29T15:48:23.636Z,1.48
2023-03-29T15:50:50.148Z,1.35
2023-03-29T15:53:17.123Z,2.30
2023-03-29T15:56:00.096Z,3.72
2023-03-29T15:58:30.546Z,3.70
2023-03-29T16:01:16.053Z,2.60
2023-03-29T16:03:46.999Z,2.10
2023-03-29T16:06:14.504Z,2.70
2023-03-29T16:08:41.773Z,2.45
2023-03-29T16:11:08.236Z,2.53
2023-03-29T16:13:34.876Z,1.50
2023-03-29T16:16:01.758Z,0.80
2023-03-29T16:18:28.499Z,0.73
2023-03-29T16:20:55.010Z,0.73
2023-03-29T16:23:21.515Z,1.08
2023-03-29T16:25:48.094Z,0.80
2023-03-29T16:28:14.533Z,0.90
2023-03-29T16:30:41.238Z,0.85
2023-03-29T16:33:08.546Z,1.20
2023-03-29T16:35:38.069Z,0.88
2023-03-29T16:38:04.759Z,1.10
2023-03-29T16:40:31.601Z,1.10
2023-03-29T16:42:58.114Z,0.90
2023-03-29T16:45:24.574Z,1.38
2023-03-29T16:47:51.358Z,4.07
2023-03-29T16:50:19.678Z,4.60
2023-03-29T16:52:48.287Z,4.45
2023-03-29T16:55:18.782Z,5.30
2023-03-29T16:57:46.755Z,3.80
2023-03-29T17:00:15.789Z,3.55
2023-03-29T17:02:49.429Z,3.60
2023-03-29T17:05:17.512Z,3.63
2023-03-29T17:07:44.739Z,3.10
2023-03-29T17:10:12.409Z,3.65
2023-03-29T17:12:39.655Z,3.65
2023-03-29T17:15:07.808Z,3.40
2023-03-29T17:17:34.771Z,2.90
2023-03-29T17:20:01.312Z,5.00
2023-03-29T17:22:27.756Z,4.22
2023-03-29T17:24:54.320Z,4.72
2023-03-29T17:27:21.175Z,4.47
2023-03-29T17:29:47.922Z,3.72
2023-03-29T17:32:14.477Z,2.17
2023-03-29T17:34:41.592Z,1.80
2023-03-29T17:37:09.210Z,2.53
2023-03-29T17:39:37.541Z,1.85
2023-03-29T17:42:05.531Z,2.65
2023-03-29T17:44:33.167Z,1.83
2023-03-29T17:47:00.495Z,1.85
2023-03-29T17:49:26.977Z,3.45
2023-03-29T17:51:53.379Z,3.17
2023-03-29T17:54:19.854Z,2.03
2023-03-29T17:56:46.369Z,1.77
2023-03-29T17:59:12.840Z,2.33
2023-03-29T18:01:39.592Z,1.83
2023-03-29T18:04:06.268Z,2.00
2023-03-29T18:06:32.823Z,1.95
2023-03-29T18:09:01.388Z,2.38
2023-03-29T18:11:28.394Z,2.25
2023-03-29T18:13:59.165Z,2.90
2023-03-29T18:16:26.050Z,3.40
2023-03-29T18:18:52.715Z,3.80
2023-03-29T18:21:19.168Z,3.10
2023-03-29T18:23:47.114Z,3.42
2023-03-29T18:26:15.522Z,4.00
2023-03-29T18:28:43.794Z,4.35
2023-03-29T18:31:10.463Z,5.20
2023-03-29T18:33:37.024Z,3.92
2023-03-29T18:36:08.446Z,3.90
2023-03-29T18:38:36.489Z,2.83
2023-03-29T18:41:04.099Z,2.92
2023-03-29T18:43:32.396Z,3.50
2023-03-29T18:45:58.967Z,3.20
2023-03-29T18:48:26.042Z,3.30
2023-03-29T18:50:52.563Z,3.42
2023-03-29T18:53:19.487Z,3.40
2023-03-29T18:55:46.001Z,2.78
2023-03-29T18:58:14.103Z,5.38
2023-03-29T19:00:41.872Z,3.97
2023-03-29T19:03:09.102Z,4.18
2023-03-29T19:05:39.629Z,4.18
2023-03-29T19:08:08.842Z,3.50
2023-03-29T19:10:36.733Z,3.53
2023-03-29T19:13:04.381Z,3.92
2023-03-29T19:15:31.400Z,3.30
2023-03-29T19:17:57.956Z,3.42
2023-03-29T19:20:25.460Z,3.00
2023-03-29T19:22:53.413Z,2.95
2023-03-29T19:25:20.190Z,3.10
2023-03-29T19:27:46.653Z,3.15
2023-03-29T19:30:14.284Z,3.03
2023-03-29T19:32:40.938Z,2.67
2023-03-29T19:35:09.477Z,3.00
2023-03-29T19:37:36.185Z,3.03
2023-03-29T19:40:06.204Z,2.75
2023-03-29T19:42:35.986Z,3.22
2023-03-29T19:45:03.902Z,3.58
2023-03-29T19:47:31.045Z,3.08
2023-03-29T19:49:58.555Z,3.63
2023-03-29T19:52:27.728Z,2.85
2023-03-29T19:54:58.494Z,2.97
2023-03-29T19:57:25.311Z,2.90
2023-03-29T19:59:53.840Z,2.70
2023-03-29T20:02:20.450Z,2.78
2023-03-29T20:04:46.995Z,2.10
2023-03-29T20:07:13.631Z,2.42
2023-03-29T20:09:43.294Z,2.40
2023-03-29T20:12:11.621Z,2.10
2023-03-29T20:14:40.133Z,2.17
2023-03-29T20:17:07.152Z,2.40
2023-03-29T20:19:36.415Z,2.10
2023-03-29T20:22:04.356Z,2.15
2023-03-29T20:24:32.532Z,2.22
2023-03-29T20:26:59.255Z,2.20
2023-03-29T20:29:25.848Z,2.10
2023-03-29T20:31:52.431Z,2.22
2023-03-29T20:34:19.043Z,2.47
2023-03-29T20:36:46.704Z,2.10
2023-03-29T20:39:17.009Z,2.05
2023-03-29T20:41:47.385Z,2.00
2023-03-29T20:44:16.638Z,2.58
2023-03-29T20:46:54.251Z,2.40
2023-03-29T20:49:26.219Z,2.42
2023-03-29T20:51:58.435Z,1.77
2023-03-29T20:54:25.873Z,2.67
2023-03-29T20:56:54.401Z,2.30
2023-03-29T20:59:22.653Z,1.52
2023-03-29T21:01:50.109Z,1.83
2023-03-29T21:04:17.642Z,1.90
2023-03-29T21:06:45.601Z,1.50
2023-03-29T21:09:13.567Z,1.40
2023-03-29T21:11:40.185Z,1.52
2023-03-29T21:14:06.793Z,1.52
2023-03-29T21:16:33.248Z,1.40
2023-03-29T21:18:59.734Z,1.60
2023-03-29T21:21:26.249Z,1.90
2023-03-29T21:23:52.886Z,1.60
2023-03-29T21:26:19.288Z,1.67
2023-03-29T21:28:45.910Z,3.50
2023-03-29T21:31:12.429Z,1.85
2023-03-29T21:33:39.117Z,1.50
2023-03-29T21:36:06.133Z,1.60
2023-03-29T21:38:32.682Z,1.42
2023-03-29T21:41:00.244Z,1.67
2023-03-29T21:43:26.793Z,2.13
2023-03-29T21:45:53.232Z,1.67
2023-03-29T21:48:19.701Z,1.90
2023-03-29T21:50:50.085Z,1.85
2023-03-29T21:53:16.788Z,1.70
2023-03-29T21:55:43.227Z,1.80
2023-03-29T21:58:09.821Z,1.80
2023-03-29T22:00:36.317Z,1.55
2023-03-29T22:03:02.932Z,1.95
2023-03-29T22:05:29.398Z,1.75
2023-03-29T22:07:58.564Z,1.67
2023-03-29T22:10:25.587Z,1.60
2023-03-29T22:12:52.559Z,1.52
2023-03-29T22:15:20.611Z,1.65
2023-03-29T22:17:48.043Z,1.80
2023-03-29T22:20:14.835Z,1.30
2023-03-29T22:22:46.803Z,1.75
2023-03-29T22:25:13.414Z,1.70
2023-03-29T22:27:39.920Z,1.85
2023-03-29T22:30:07.060Z,1.40
2023-03-29T22:32:34.666Z,1.52
2023-03-29T22:35:01.164Z,1.83
2023-03-29T22:37:27.819Z,1.88
2023-03-29T22:39:54.273Z,1.88
2023-03-29T22:42:20.992Z,1.33
2023-03-29T22:44:47.484Z,1.50
2023-03-29T22:47:14.292Z,1.50
2023-03-29T22:49:41.288Z,1.67
2023-03-29T22:52:07.965Z,1.83
2023-03-29T22:54:34.407Z,1.90
2023-03-29T22:57:00.863Z,1.92
2023-03-29T22:59:27.456Z,2.42
2023-03-29T23:01:54.066Z,1.45
2023-03-29T23:04:20.653Z,2.28
2023-03-29T23:06:47.091Z,1.98
2023-03-29T23:09:15.848Z,1.45
2023-03-29T23:11:42.876Z,2.20
2023-03-29T23:14:09.539Z,1.60
2023-03-29T23:16:36.919Z,1.77
2023-03-29T23:19:03.461Z,2.13
2023-03-29T23:21:29.993Z,1.38
2023-03-29T23:23:56.464Z,1.50
2023-03-29T23:26:23.111Z,1.65
2023-03-29T23:28:51.473Z,1.88
2023-03-29T23:31:18.436Z,2.08
2023-03-29T23:33:45.476Z,2.38
2023-03-29T23:36:14.922Z,2.15
2023-03-29T23:38:43.672Z,2.03
2023-03-29T23:41:12.565Z,2.42
2023-03-29T23:43:41.718Z,2.28
2023-03-29T23:46:10.782Z,1.63
2023-03-29T23:48:38.496Z,1.98
2023-03-29T23:51:07.740Z,2.72
2023-03-29T23:53:34.208Z,1.50
2023-03-29T23:56:03.312Z,2.00
2023-03-29T23:58:35.945Z,2.75
